createdAt,value
2023-05-06T00:01:46.636Z,23.33
2023-05-06T00:03:52.354Z,23.17
2023-05-06T00:05:55.141Z,25.55
2023-05-06T00:07:58.761Z,22.83
2023-05-06T00:10:01.738Z,22.42
2023-05-06T00:12:05.698Z,21.73
2023-05-06T00:14:08.475Z,29.08
2023-05-06T00:16:11.335Z,21.05
2023-05-06T00:18:15.423Z,18.75
2023-05-06T00:20:20.908Z,25.90
2023-05-06T00:22:23.460Z,26.38
2023-05-06T00:24:25.896Z,22.15
2023-05-06T00:26:28.420Z,25.02
2023-05-06T00:28:31.187Z,24.88
2023-05-06T00:30:33.863Z,23.58
2023-05-06T00:34:41.358Z,20.77
2023-05-06T00:36:46.446Z,23.73
2023-05-06T00:38:50.260Z,20.90
2023-05-06T00:40:52.946Z,24.05
2023-05-06T00:42:55.994Z,21.65
2023-05-06T00:44:58.736Z,20.85
2023-05-06T00:47:01.825Z,25.08
2023-05-06T00:49:04.486Z,24.48
2023-05-06T00:51:07.161Z,26.00
2023-05-06T00:53:12.695Z,24.02
2023-05-06T00:55:15.625Z,25.88
2023-05-06T00:57:18.419Z,23.13
2023-05-06T00:59:21.503Z,26.00
2023-05-06T01:01:24.559Z,26.05
2023-05-06T01:03:30.004Z,25.15
2023-05-06T01:05:52.409Z,22.85
2023-05-06T01:08:03.869Z,26.58
2023-05-06T01:10:19.013Z,26.25
2023-05-06T01:12:30.823Z,28.88
2023-05-06T01:14:39.889Z,26.85
2023-05-06T01:16:45.118Z,32.67
2023-05-06T01:18:50.933Z,33.92
2023-05-06T01:20:56.074Z,32.55
2023-05-06T01:22:58.815Z,29.15
2023-05-06T01:25:04.328Z,31.95
2023-05-06T01:27:07.434Z,31.77
2023-05-06T01:29:11.623Z,33.45
2023-05-06T01:31:25.015Z,32.33
2023-05-06T01:33:37.235Z,32.42
2023-05-06T01:35:53.764Z,32.33
2023-05-06T01:38:06.156Z,31.17
2023-05-06T01:40:12.838Z,29.48
2023-05-06T01:42:16.716Z,35.75
2023-05-06T01:44:22.479Z,34.22
2023-05-06T01:46:25.913Z,33.15
2023-05-06T01:48:34.047Z,31.55
2023-05-06T01:50:37.790Z,31.95
2023-05-06T01:52:41.431Z,33.90
2023-05-06T01:54:43.933Z,33.90
2023-05-06T01:56:50.688Z,33.92
2023-05-06T01:58:53.981Z,30.55
2023-05-06T02:00:56.610Z,31.67
2023-05-06T02:03:01.372Z,31.33
2023-05-06T02:05:07.458Z,37.00
2023-05-06T02:07:15.820Z,33.10
2023-05-06T02:09:19.980Z,37.50
2023-05-06T02:11:28.989Z,37.10
2023-05-06T02:13:40.850Z,33.30
2023-05-06T02:15:45.028Z,31.67
2023-05-06T02:17:52.184Z,37.50
2023-05-06T02:19:54.916Z,38.75
2023-05-06T02:21:58.713Z,33.78
2023-05-06T02:24:01.317Z,34.03
2023-05-06T02:26:04.586Z,32.92
2023-05-06T02:28:09.049Z,31.92
2023-05-06T02:30:15.166Z,24.83
2023-05-06T02:32:18.150Z,33.38
2023-05-06T02:34:20.890Z,30.25
2023-05-06T02:36:25.550Z,27.27
2023-05-06T02:38:30.528Z,24.60
2023-05-06T02:40:33.228Z,20.17
2023-05-06T02:42:36.128Z,22.52
2023-05-06T02:44:38.812Z,29.08
2023-05-06T02:46:45.049Z,25.83
2023-05-06T02:48:48.023Z,22.67
2023-05-06T02:50:51.512Z,27.90
2023-05-06T02:52:53.921Z,25.42
2023-05-06T02:54:56.522Z,28.50
2023-05-06T02:56:59.270Z,32.78
2023-05-06T02:59:04.839Z,27.95
2023-05-06T03:01:07.768Z,32.70
2023-05-06T03:03:13.367Z,25.33
2023-05-06T03:05:16.318Z,42.40
2023-05-06T03:07:18.969Z,27.55
2023-05-06T03:09:21.933Z,34.65
2023-05-06T03:11:25.082Z,24.20
2023-05-06T03:13:27.828Z,22.85
2023-05-06T03:15:30.595Z,20.95
2023-05-06T03:17:33.146Z,21.67
2023-05-06T03:19:39.689Z,27.05
2023-05-06T03:21:44.903Z,21.80
2023-05-06T03:23:47.813Z,21.27
2023-05-06T03:25:51.522Z,17.88
2023-05-06T03:27:55.885Z,20.60
2023-05-06T03:29:59.561Z,22.58
2023-05-06T03:32:04.222Z,22.90
2023-05-06T03:34:11.581Z,17.77
2023-05-06T03:36:18.616Z,19.73
2023-05-06T03:38:24.283Z,16.52
2023-05-06T03:40:33.817Z,19.45
2023-05-06T03:42:36.689Z,17.40
2023-05-06T03:44:39.993Z,15.30
2023-05-06T03:46:42.664Z,10.75
2023-05-06T03:48:45.616Z,15.27
2023-05-06T03:50:51.815Z,21.73
2023-05-06T03:52:57.534Z,16.10
2023-05-06T03:55:05.516Z,19.42
2023-05-06T03:57:11.063Z,17.20
2023-05-06T03:59:14.002Z,16.88
2023-05-06T04:01:18.337Z,16.42
2023-05-06T04:03:20.990Z,13.82
2023-05-06T04:05:28.739Z,8.40
2023-05-06T04:07:38.734Z,7.60
2023-05-06T04:09:45.041Z,7.70
2023-05-06T04:11:47.506Z,10.65
2023-05-06T04:13:53.022Z,14.15
2023-05-06T04:15:58.672Z,22.17
2023-05-06T04:18:08.072Z,23.00
2023-05-06T04:20:14.595Z,26.42
2023-05-06T04:22:17.579Z,30.08
2023-05-06T04:24:21.636Z,23.92
2023-05-06T04:26:26.812Z,27.75
2023-05-06T04:28:29.641Z,26.70
2023-05-06T04:30:32.628Z,24.33
2023-05-06T04:32:36.786Z,22.27
2023-05-06T04:34:40.725Z,14.73
2023-05-06T04:36:51.251Z,15.45
2023-05-06T04:39:04.118Z,20.67
2023-05-06T04:41:06.681Z,18.65
2023-05-06T04:43:12.342Z,20.60
2023-05-06T04:45:15.040Z,26.13
2023-05-06T04:47:20.635Z,22.45
2023-05-06T04:49:27.550Z,31.42
2023-05-06T04:51:32.118Z,33.08
2023-05-06T04:53:39.450Z,31.38
2023-05-06T04:55:42.505Z,27.90
2023-05-06T04:57:45.646Z,32.07
2023-05-06T04:59:50.888Z,25.58
2023-05-06T05:01:56.605Z,31.27
2023-05-06T05:04:01.654Z,30.80
2023-05-06T05:06:08.165Z,30.55
2023-05-06T05:08:13.551Z,27.52
2023-05-06T05:10:26.042Z,31.67
2023-05-06T05:12:30.980Z,26.52
2023-05-06T05:14:34.474Z,33.60
2023-05-06T05:16:40.818Z,33.33
2023-05-06T05:18:44.229Z,28.83
2023-05-06T05:20:54.593Z,28.25
2023-05-06T05:22:57.646Z,27.95
2023-05-06T05:25:00.610Z,34.13
2023-05-06T05:27:03.723Z,33.10
2023-05-06T05:29:06.874Z,31.52
2023-05-06T05:31:10.729Z,29.42
2023-05-06T05:33:16.499Z,32.57
2023-05-06T05:35:20.923Z,34.30
2023-05-06T05:37:25.748Z,32.42
2023-05-06T05:39:32.370Z,29.23
2023-05-06T05:41:35.758Z,35.00
2023-05-06T05:43:38.538Z,34.40
2023-05-06T05:45:43.260Z,30.65
2023-05-06T05:47:49.074Z,31.08
2023-05-06T05:49:55.227Z,31.35
2023-05-06T05:51:59.992Z,30.67
2023-05-06T05:56:07.709Z,25.02
2023-05-06T05:58:13.103Z,30.15
2023-05-06T06:00:19.321Z,30.85
2023-05-06T06:02:21.969Z,31.58
2023-05-06T06:04:24.805Z,28.20
2023-05-06T06:06:50.446Z,28.40
2023-05-06T06:09:15.072Z,27.83
2023-05-06T06:11:38.412Z,28.90
2023-05-06T06:13:42.310Z,29.60
2023-05-06T06:15:47.443Z,32.20
2023-05-06T06:17:53.050Z,31.15
2023-05-06T06:19:57.508Z,30.50
2023-05-06T06:22:02.850Z,34.20
2023-05-06T06:24:08.741Z,35.63
2023-05-06T06:26:12.401Z,36.60
2023-05-06T06:28:15.573Z,34.03
2023-05-06T06:30:19.491Z,35.85
2023-05-06T06:32:28.742Z,36.72
2023-05-06T06:34:31.501Z,35.67
2023-05-06T06:36:34.170Z,35.45
2023-05-06T06:38:40.338Z,35.25
2023-05-06T06:40:43.606Z,37.45
2023-05-06T06:42:47.227Z,37.10
2023-05-06T06:45:23.607Z,35.60
2023-05-06T06:47:30.136Z,32.90
2023-05-06T06:49:32.927Z,38.00
2023-05-06T06:51:35.814Z,34.55
2023-05-06T06:53:43.426Z,35.70
2023-05-06T06:55:48.179Z,32.90
2023-05-06T06:58:10.666Z,36.03
2023-05-06T07:00:33.156Z,36.55
2023-05-06T07:02:36.035Z,30.63
2023-05-06T07:04:39.704Z,32.08
2023-05-06T07:06:42.570Z,34.88
2023-05-06T07:08:47.736Z,35.53
2023-05-06T07:10:50.459Z,35.42
2023-05-06T07:13:00.598Z,35.42
2023-05-06T07:15:07.029Z,33.92
2023-05-06T07:17:09.816Z,34.72
2023-05-06T07:19:12.431Z,37.15
2023-05-06T07:21:15.077Z,34.47
2023-05-06T07:23:17.671Z,34.03
2023-05-06T07:25:23.111Z,36.28
2023-05-06T07:27:27.548Z,34.88
2023-05-06T07:29:30.752Z,28.67
2023-05-06T07:31:34.090Z,30.05
2023-05-06T07:33:36.898Z,30.75
2023-05-06T07:35:39.388Z,29.52
2023-05-06T07:37:42.088Z,32.13
2023-05-06T07:39:44.769Z,32.88
2023-05-06T07:41:51.286Z,31.83
2023-05-06T07:43:54.052Z,35.47
2023-05-06T07:46:02.737Z,34.45
2023-05-06T07:48:06.283Z,34.70
2023-05-06T07:50:10.770Z,34.67
2023-05-06T07:54:20.123Z,33.35
2023-05-06T07:56:22.562Z,34.53
2023-05-06T07:58:31.329Z,33.05
2023-05-06T08:00:34.154Z,30.77
2023-05-06T08:02:38.595Z,33.03
2023-05-06T08:04:41.164Z,31.67
2023-05-06T08:06:46.508Z,32.22
2023-05-06T08:08:49.320Z,32.38
2023-05-06T08:10:51.902Z,33.60
2023-05-06T08:12:57.096Z,28.80
2023-05-06T08:15:02.391Z,34.17
2023-05-06T08:17:04.841Z,20.55
2023-05-06T08:19:07.732Z,24.13
2023-05-06T08:21:10.515Z,21.83
2023-05-06T08:23:12.976Z,17.45
2023-05-06T08:25:15.788Z,17.13
2023-05-06T08:27:18.461Z,20.02
2023-05-06T08:29:21.118Z,18.10
2023-05-06T08:31:26.335Z,17.13
2023-05-06T08:33:31.133Z,18.25
2023-05-06T08:35:33.981Z,15.00
2023-05-06T08:37:36.717Z,16.65
2023-05-06T08:39:39.270Z,14.88
2023-05-06T08:41:47.582Z,17.48
2023-05-06T08:43:54.550Z,11.13
2023-05-06T08:45:57.572Z,12.10
2023-05-06T08:48:02.963Z,11.48
2023-05-06T08:50:06.825Z,13.48
2023-05-06T08:52:09.436Z,13.02
2023-05-06T08:54:13.069Z,11.30
2023-05-06T08:56:16.971Z,10.25
2023-05-06T08:58:20.891Z,11.43
2023-05-06T09:00:23.577Z,11.18
2023-05-06T09:02:27.698Z,11.30
2023-05-06T09:04:33.032Z,11.65
2023-05-06T09:06:35.869Z,13.10
2023-05-06T09:08:38.291Z,12.93
2023-05-06T09:10:44.269Z,12.07
2023-05-06T09:12:46.903Z,12.07
2023-05-06T09:14:51.502Z,12.73
2023-05-06T09:16:54.235Z,13.20
2023-05-06T09:18:57.272Z,13.95
2023-05-06T09:21:04.960Z,14.10
2023-05-06T09:23:12.105Z,14.48
2023-05-06T09:25:14.970Z,14.13
2023-05-06T09:27:21.829Z,11.75
2023-05-06T09:29:30.642Z,14.38
2023-05-06T09:31:33.417Z,16.75
2023-05-06T09:33:37.908Z,16.40
2023-05-06T09:35:42.582Z,21.20
2023-05-06T09:37:49.075Z,24.25
2023-05-06T09:39:54.838Z,23.35
2023-05-06T09:41:57.567Z,17.48
2023-05-06T09:44:05.856Z,19.10
2023-05-06T09:46:09.115Z,27.60
2023-05-06T09:48:11.896Z,20.27
2023-05-06T09:50:15.557Z,24.80
2023-05-06T09:52:19.649Z,22.27
2023-05-06T09:56:28.250Z,19.92
2023-05-06T09:58:32.291Z,18.67
2023-05-06T10:02:59.276Z,23.05
2023-05-06T10:05:06.301Z,34.03
2023-05-06T10:07:17.260Z,25.00
2023-05-06T10:09:22.339Z,27.70
2023-05-06T10:11:29.637Z,36.25
2023-05-06T10:13:37.196Z,30.67
2023-05-06T10:15:40.172Z,28.23
2023-05-06T10:17:45.442Z,32.55
2023-05-06T10:19:50.461Z,26.92
2023-05-06T10:21:58.143Z,19.20
2023-05-06T10:24:07.754Z,26.33
2023-05-06T10:26:12.270Z,33.35
2023-05-06T10:28:31.541Z,34.08
2023-05-06T10:30:35.665Z,52.25
2023-05-06T10:32:43.583Z,50.05
2023-05-06T10:34:53.983Z,53.67
2023-05-06T10:36:58.374Z,54.05
2023-05-06T10:39:09.954Z,47.75
2023-05-06T10:41:13.994Z,56.03
2023-05-06T10:46:01.447Z,42.33
2023-05-06T10:48:09.250Z,50.17
2023-05-06T10:50:23.072Z,56.13
2023-05-06T10:52:26.381Z,59.78
2023-05-06T10:54:29.083Z,28.13
2023-05-06T10:56:37.875Z,36.92
2023-05-06T10:58:47.755Z,34.33
2023-05-06T11:00:58.277Z,38.13
2023-05-06T11:03:09.216Z,31.95
2023-05-06T11:05:12.085Z,39.85
2023-05-06T11:07:15.941Z,39.73
2023-05-06T11:09:19.951Z,30.88
2023-05-06T11:11:50.079Z,35.55
2023-05-06T11:13:55.716Z,25.13
2023-05-06T11:16:06.686Z,24.40
2023-05-06T11:18:39.554Z,23.35
2023-05-06T11:20:42.279Z,25.73
2023-05-06T11:22:44.919Z,29.25
2023-05-06T11:24:47.544Z,31.23
2023-05-06T11:26:50.902Z,25.67
2023-05-06T11:28:59.747Z,29.13
2023-05-06T11:31:04.691Z,22.90
2023-05-06T11:33:21.840Z,24.48
2023-05-06T11:35:26.476Z,20.98
2023-05-06T11:37:30.079Z,22.83
2023-05-06T11:39:39.877Z,21.50
2023-05-06T11:41:43.708Z,19.52
2023-05-06T11:43:50.082Z,16.35
2023-05-06T11:45:56.239Z,21.63
2023-05-06T11:47:58.756Z,18.15
2023-05-06T11:50:08.162Z,17.77
2023-05-06T11:52:18.650Z,15.95
2023-05-06T11:54:23.076Z,14.52
2023-05-06T11:56:27.627Z,15.40
2023-05-06T11:58:30.568Z,18.58
2023-05-06T12:00:33.581Z,19.40
2023-05-06T12:02:39.079Z,19.35
2023-05-06T12:04:53.308Z,17.83
2023-05-06T12:06:59.855Z,26.00
2023-05-06T12:09:06.010Z,30.75
2023-05-06T12:13:12.900Z,18.27
2023-05-06T12:15:24.187Z,16.85
2023-05-06T12:17:27.445Z,18.53
2023-05-06T12:19:36.278Z,18.08
2023-05-06T12:21:39.243Z,18.92
2023-05-06T12:23:54.155Z,18.23
2023-05-06T12:26:04.650Z,22.73
2023-05-06T12:28:16.318Z,16.05
2023-05-06T12:30:33.790Z,20.05
2023-05-06T12:32:57.517Z,16.25
2023-05-06T12:35:08.837Z,24.88
2023-05-06T12:37:11.704Z,18.02
2023-05-06T12:39:15.175Z,17.95
2023-05-06T12:41:20.591Z,17.65
2023-05-06T12:43:30.526Z,15.25
2023-05-06T12:45:33.708Z,15.50
2023-05-06T12:47:37.417Z,14.73
2023-05-06T12:50:02.897Z,12.60
2023-05-06T12:52:06.996Z,12.50
2023-05-06T12:56:27.162Z,20.23
2023-05-06T12:58:29.857Z,7.68
2023-05-06T13:00:32.422Z,10.82
2023-05-06T13:02:35.057Z,12.57
2023-05-06T13:04:37.754Z,10.27
2023-05-06T13:06:43.127Z,7.95
2023-05-06T13:08:45.667Z,7.57
2023-05-06T13:10:48.518Z,7.53
2023-05-06T13:12:51.041Z,6.50
2023-05-06T13:14:53.610Z,6.22
2023-05-06T13:16:56.425Z,6.30
2023-05-06T13:18:59.384Z,7.70
2023-05-06T13:21:02.114Z,8.48
2023-05-06T13:23:07.483Z,9.63
2023-05-06T13:25:11.746Z,8.60
2023-05-06T13:27:14.319Z,8.57
2023-05-06T13:29:17.063Z,6.63
2023-05-06T13:31:19.730Z,5.88
2023-05-06T13:33:26.532Z,6.07
2023-05-06T13:35:30.619Z,9.30
2023-05-06T13:37:33.300Z,8.65
2023-05-06T13:39:38.826Z,9.40
2023-05-06T13:41:41.700Z,7.82
2023-05-06T13:43:45.339Z,9.50
2023-05-06T13:45:48.214Z,10.35
2023-05-06T13:47:51.818Z,11.32
2023-05-06T13:49:54.311Z,11.68
2023-05-06T13:51:57.646Z,13.57
2023-05-06T13:54:01.416Z,10.32
2023-05-06T13:56:07.100Z,11.25
2023-05-06T13:58:12.509Z,11.40
2023-05-06T14:00:16.088Z,10.48
2023-05-06T14:02:39.215Z,9.73
2023-05-06T14:04:42.261Z,10.02
2023-05-06T14:06:44.935Z,9.43
2023-05-06T14:08:48.200Z,10.15
2023-05-06T14:10:53.742Z,9.80
2023-05-06T14:12:59.005Z,9.38
2023-05-06T14:15:01.684Z,9.27
2023-05-06T14:17:04.983Z,11.40
2023-05-06T14:19:07.952Z,11.13
2023-05-06T14:21:10.746Z,11.30
2023-05-06T14:23:13.481Z,11.38
2023-05-06T14:25:16.219Z,13.35
2023-05-06T14:27:18.994Z,12.68
2023-05-06T14:29:24.171Z,11.90
2023-05-06T14:31:26.864Z,12.00
2023-05-06T14:33:29.441Z,14.82
2023-05-06T14:37:36.223Z,14.18
2023-05-06T14:39:42.718Z,14.13
2023-05-06T14:41:46.028Z,15.48
2023-05-06T14:43:48.699Z,14.57
2023-05-06T14:45:54.395Z,14.02
2023-05-06T14:47:58.257Z,13.45
2023-05-06T14:50:01.013Z,14.65
2023-05-06T14:52:07.900Z,15.02
2023-05-06T14:54:11.398Z,13.10
2023-05-06T14:56:14.147Z,11.52
2023-05-06T14:58:19.424Z,11.80
2023-05-06T15:00:22.346Z,11.10
2023-05-06T15:02:27.818Z,11.73
2023-05-06T15:04:30.784Z,11.90
2023-05-06T15:06:33.274Z,10.63
2023-05-06T15:08:35.925Z,10.40
2023-05-06T15:10:38.688Z,9.43
2023-05-06T15:12:41.517Z,9.55
2023-05-06T15:14:44.260Z,8.82
2023-05-06T15:16:55.810Z,8.85
2023-05-06T15:19:01.083Z,8.88
2023-05-06T15:21:03.744Z,8.55
2023-05-06T15:23:06.496Z,8.38
2023-05-06T15:25:16.636Z,8.45
2023-05-06T15:27:25.552Z,8.25
2023-05-06T15:29:28.332Z,7.97
2023-05-06T15:31:32.594Z,7.10
2023-05-06T15:35:40.349Z,7.03
2023-05-06T15:37:43.064Z,7.60
2023-05-06T15:39:46.814Z,7.13
2023-05-06T15:41:49.446Z,8.27
2023-05-06T15:43:52.285Z,7.45
2023-05-06T15:45:54.895Z,7.65
2023-05-06T15:47:58.386Z,7.07
2023-05-06T15:50:01.554Z,7.32
2023-05-06T15:52:07.281Z,7.37
2023-05-06T15:54:10.001Z,7.30
2023-05-06T15:56:19.317Z,7.72
2023-05-06T15:58:22.102Z,9.45
2023-05-06T16:00:24.772Z,9.75
2023-05-06T16:02:27.856Z,9.50
2023-05-06T16:04:31.036Z,9.10
2023-05-06T16:06:35.442Z,9.32
2023-05-06T16:08:41.953Z,10.55
2023-05-06T16:10:44.914Z,9.25
2023-05-06T16:12:48.635Z,8.38
2023-05-06T16:14:51.383Z,8.00
2023-05-06T16:16:54.112Z,8.00
2023-05-06T16:18:56.748Z,8.40
2023-05-06T16:20:59.342Z,9.27
2023-05-06T16:23:03.006Z,8.40
2023-05-06T16:25:09.055Z,8.90
2023-05-06T16:27:11.460Z,9.20
2023-05-06T16:29:15.835Z,9.82
2023-05-06T16:31:18.659Z,9.70
2023-05-06T16:33:22.750Z,11.35
2023-05-06T16:37:29.377Z,10.35
2023-05-06T16:39:32.068Z,9.98
2023-05-06T16:41:37.124Z,10.00
2023-05-06T16:43:46.584Z,10.68
2023-05-06T16:45:49.438Z,11.18
2023-05-06T16:47:51.882Z,11.70
2023-05-06T16:49:55.453Z,11.98
2023-05-06T16:52:00.699Z,11.48
2023-05-06T16:54:03.631Z,11.07
2023-05-06T16:56:07.302Z,12.15
2023-05-06T16:58:20.646Z,11.35
2023-05-06T17:00:23.749Z,11.77
2023-05-06T17:02:27.802Z,13.20
2023-05-06T17:06:33.507Z,11.23
2023-05-06T17:08:37.245Z,9.93
2023-05-06T17:10:40.408Z,8.18
2023-05-06T17:12:44.969Z,7.63
2023-05-06T17:14:52.327Z,8.93
2023-05-06T17:16:59.126Z,7.38
2023-05-06T17:19:02.588Z,7.80
2023-05-06T17:21:09.039Z,6.88
2023-05-06T17:23:17.753Z,6.82
2023-05-06T17:25:20.632Z,7.25
2023-05-06T17:27:23.594Z,6.80
2023-05-06T17:29:26.255Z,6.80
2023-05-06T17:31:38.399Z,7.90
2023-05-06T17:33:40.913Z,7.35
2023-05-06T17:35:43.509Z,7.93
2023-05-06T17:37:46.608Z,7.43
2023-05-06T17:39:49.330Z,8.70
2023-05-06T17:41:52.045Z,8.35
2023-05-06T17:43:54.833Z,7.95
2023-05-06T17:45:57.426Z,7.90
2023-05-06T17:48:11.652Z,8.75
2023-05-06T17:50:15.365Z,8.98
2023-05-06T17:52:18.116Z,8.65
2023-05-06T17:54:20.912Z,8.27
2023-05-06T17:56:26.904Z,9.27
2023-05-06T17:58:29.595Z,9.80
2023-05-06T18:00:32.422Z,9.63
2023-05-06T18:02:43.635Z,9.05
2023-05-06T18:04:49.492Z,11.63
2023-05-06T18:06:52.290Z,10.98
2023-05-06T18:08:57.672Z,12.13
2023-05-06T18:11:00.319Z,10.60
2023-05-06T18:13:02.964Z,10.88
2023-05-06T18:15:07.273Z,11.98
2023-05-06T18:17:09.883Z,11.73
2023-05-06T18:19:12.770Z,11.82
2023-05-06T18:21:18.014Z,12.25
2023-05-06T18:23:20.576Z,12.25
2023-05-06T18:25:23.755Z,11.70
2023-05-06T18:27:26.304Z,11.65
2023-05-06T18:29:30.642Z,16.63
2023-05-06T18:31:33.489Z,12.68
2023-05-06T18:33:36.110Z,11.52
2023-05-06T18:35:38.726Z,12.70
2023-05-06T18:37:43.890Z,13.13
2023-05-06T18:39:46.856Z,12.45
2023-05-06T18:41:53.894Z,12.52
2023-05-06T18:44:05.993Z,13.23
2023-05-06T18:46:08.660Z,13.35
2023-05-06T18:48:12.415Z,13.05
2023-05-06T18:50:16.461Z,20.33
2023-05-06T18:52:28.332Z,13.10
2023-05-06T18:54:33.569Z,12.93
2023-05-06T18:56:37.591Z,14.18
2023-05-06T18:58:41.191Z,14.48
2023-05-06T19:00:47.686Z,14.02
2023-05-06T19:02:51.278Z,18.63
2023-05-06T19:04:53.902Z,12.68
2023-05-06T19:06:56.615Z,14.80
2023-05-06T19:09:03.670Z,13.45
2023-05-06T19:11:14.949Z,12.67
2023-05-06T19:13:17.678Z,12.70
2023-05-06T19:15:23.619Z,13.05
2023-05-06T19:17:33.352Z,13.50
2023-05-06T19:19:35.999Z,12.50
2023-05-06T19:21:38.759Z,13.38
2023-05-06T19:23:41.731Z,13.32
2023-05-06T19:25:46.293Z,14.45
2023-05-06T19:27:57.240Z,13.93
2023-05-06T19:30:00.144Z,13.07
2023-05-06T19:32:02.861Z,15.65
2023-05-06T19:34:05.568Z,14.05
2023-05-06T19:36:10.082Z,15.50
2023-05-06T19:38:12.565Z,16.73
2023-05-06T19:40:15.575Z,14.80
2023-05-06T19:42:18.236Z,14.98
2023-05-06T19:44:24.776Z,15.30
2023-05-06T19:46:27.678Z,13.95
2023-05-06T19:48:34.949Z,14.38
2023-05-06T19:50:49.217Z,15.23
2023-05-06T19:52:51.899Z,13.88
2023-05-06T19:54:57.516Z,14.38
2023-05-06T19:57:00.189Z,16.40
2023-05-06T19:59:06.454Z,16.27
2023-05-06T20:01:12.068Z,16.52
2023-05-06T20:03:19.251Z,15.20
2023-05-06T20:05:22.789Z,14.73
2023-05-06T20:07:28.213Z,15.63
2023-05-06T20:09:30.762Z,16.17
2023-05-06T20:11:33.358Z,18.00
2023-05-06T20:13:36.518Z,17.85
2023-05-06T20:15:39.012Z,16.02
2023-05-06T20:17:48.557Z,15.43
2023-05-06T20:19:51.226Z,16.65
2023-05-06T20:21:54.242Z,17.92
2023-05-06T20:23:57.136Z,16.73
2023-05-06T20:25:59.979Z,17.13
2023-05-06T20:28:03.724Z,17.33
2023-05-06T20:30:08.283Z,17.58
2023-05-06T20:32:17.625Z,16.95
2023-05-06T20:34:23.132Z,18.58
2023-05-06T20:36:26.997Z,19.42
2023-05-06T20:38:50.413Z,20.50
2023-05-06T20:40:53.104Z,20.13
2023-05-06T20:42:56.185Z,16.92
2023-05-06T20:45:01.333Z,18.80
2023-05-06T20:47:04.228Z,18.17
2023-05-06T20:49:07.503Z,19.55
2023-05-06T20:51:28.223Z,17.95
2023-05-06T20:53:30.961Z,20.92
2023-05-06T20:55:33.810Z,20.55
2023-05-06T20:57:42.643Z,19.48
2023-05-06T20:59:45.365Z,20.52
2023-05-06T21:01:47.843Z,21.55
2023-05-06T21:03:51.224Z,20.05
2023-05-06T21:05:53.946Z,20.50
2023-05-06T21:07:59.260Z,23.83
2023-05-06T21:10:04.040Z,21.23
2023-05-06T21:12:06.639Z,21.58
2023-05-06T21:14:10.518Z,23.70
2023-05-06T21:16:13.194Z,21.75
2023-05-06T21:18:17.212Z,22.92
2023-05-06T21:20:22.777Z,20.95
2023-05-06T21:22:26.207Z,22.35
2023-05-06T21:24:31.466Z,23.73
2023-05-06T21:26:34.056Z,24.42
2023-05-06T21:28:37.435Z,24.67
2023-05-06T21:30:42.927Z,24.47
2023-05-06T21:32:45.579Z,25.42
2023-05-06T21:34:48.130Z,24.60
2023-05-06T21:36:50.903Z,24.63
2023-05-06T21:39:01.958Z,25.48
2023-05-06T21:41:07.502Z,24.77
2023-05-06T21:43:10.372Z,24.02
2023-05-06T21:45:13.516Z,26.25
2023-05-06T21:47:16.283Z,27.77
2023-05-06T21:49:19.645Z,25.33
2023-05-06T21:51:23.000Z,24.30
2023-05-06T21:53:25.585Z,26.83
2023-05-06T21:55:28.139Z,27.50
2023-05-06T21:57:33.493Z,25.95
2023-05-06T21:59:36.567Z,25.98
2023-05-06T22:01:39.334Z,23.05
2023-05-06T22:03:42.126Z,25.58
2023-05-06T22:05:44.744Z,28.52
2023-05-06T22:07:47.361Z,28.52
2023-05-06T22:09:49.874Z,28.50
2023-05-06T22:11:52.352Z,28.27
2023-05-06T22:13:58.145Z,29.23
2023-05-06T22:16:00.781Z,29.35
2023-05-06T22:18:03.668Z,30.55
2023-05-06T22:20:11.125Z,30.30
2023-05-06T22:22:13.622Z,29.00
2023-05-06T22:24:16.178Z,29.17
2023-05-06T22:26:18.678Z,29.63
2023-05-06T22:28:21.774Z,30.30
2023-05-06T22:30:26.961Z,29.67
2023-05-06T22:32:29.771Z,27.45
2023-05-06T22:34:32.319Z,28.85
2023-05-06T22:36:34.895Z,29.83
2023-05-06T22:38:37.794Z,25.77
2023-05-06T22:40:50.639Z,28.15
2023-05-06T22:42:53.169Z,26.35
2023-05-06T22:44:58.704Z,28.42
2023-05-06T22:47:03.934Z,28.40
2023-05-06T22:49:06.919Z,29.83
2023-05-06T22:51:14.147Z,28.55
2023-05-06T22:53:18.831Z,26.63
2023-05-06T22:55:21.591Z,28.40
2023-05-06T22:57:25.645Z,30.90
2023-05-06T22:59:33.459Z,37.88
2023-05-06T23:01:36.462Z,29.13
2023-05-06T23:03:41.910Z,27.73
2023-05-06T23:05:44.810Z,27.33
2023-05-06T23:07:47.378Z,34.00
2023-05-06T23:09:49.841Z,29.13
2023-05-06T23:11:54.797Z,31.42
2023-05-06T23:13:58.211Z,28.77
2023-05-06T23:16:00.746Z,33.13
2023-05-06T23:18:03.440Z,28.50
2023-05-06T23:20:12.983Z,30.83
2023-05-06T23:22:15.465Z,28.90
2023-05-06T23:24:17.990Z,33.45
2023-05-06T23:26:20.956Z,32.63
2023-05-06T23:28:23.456Z,28.70
2023-05-06T23:30:26.225Z,31.88
2023-05-06T23:32:28.880Z,27.98
2023-05-06T23:34:31.307Z,28.77
2023-05-06T23:36:37.226Z,31.30
2023-05-06T23:38:39.726Z,34.20
2023-05-06T23:40:42.184Z,32.40
2023-05-06T23:42:44.632Z,31.23
2023-05-06T23:44:48.375Z,31.52
2023-05-06T23:46:52.236Z,32.55
2023-05-06T23:48:54.933Z,34.90
2023-05-06T23:50:57.456Z,32.75
2023-05-06T23:53:04.877Z,29.17
2023-05-06T23:55:09.127Z,27.67
2023-05-06T23:57:12.024Z,30.15
2023-05-06T23:59:14.459Z,27.30
